Time;durP1;ratioP1;P1;durP2;ratioP2;P2;SDS_P1;SDS_P2;PMS_P1;PMS_P2;Temp;Humidity;BMP_temperature;BMP_pressure;BME280_temperature;BME280_humidity;BME280_pressure;Samples;Min_cycle;Max_cycle;Signal;HPM_P1;HPM_P2
2022/07/18 00:01:59;;;;;;;9.43;6.70;;;17.50;99.90;;;;;;5033448;28;20041;-71
2022/07/18 00:04:26;;;;;;;11.45;6.15;;;17.50;99.90;;;;;;5031950;28;20064;-70
2022/07/18 00:06:54;;;;;;;11.98;5.95;;;17.50;99.90;;;;;;5031791;28;20041;-71
2022/07/18 00:09:22;;;;;;;10.40;5.70;;;17.60;99.90;;;;;;5032802;28;20112;-71
2022/07/18 00:11:48;;;;;;;8.95;6.05;;;17.50;99.90;;;;;;5031811;28;20045;-71
2022/07/18 00:14:13;;;;;;;7.53;5.57;;;17.40;99.90;;;;;;5033164;28;20045;-71
2022/07/18 00:16:39;;;;;;;7.65;5.53;;;17.30;99.90;;;;;;5033023;28;20570;-71
2022/07/18 00:19:06;;;;;;;11.05;6.07;;;17.20;99.90;;;;;;5032923;28;20045;-71
2022/07/18 00:21:32;;;;;;;9.05;6.05;;;17.20;99.90;;;;;;5032593;28;20052;-71
2022/07/18 00:23:57;;;;;;;11.68;5.65;;;17.10;99.90;;;;;;5031482;28;20044;-71
2022/07/18 00:26:23;;;;;;;12.25;7.93;;;17.00;99.90;;;;;;5031438;28;20419;-71
2022/07/18 00:28:49;;;;;;;10.80;6.28;;;16.90;99.90;;;;;;5015028;28;20120;-71
2022/07/18 00:31:14;;;;;;;10.15;6.60;;;16.80;99.90;;;;;;5030527;28;20407;-71
2022/07/18 00:33:40;;;;;;;8.30;6.22;;;16.80;99.90;;;;;;5030910;28;20124;-71
2022/07/18 00:36:05;;;;;;;9.10;6.68;;;16.90;99.90;;;;;;5031326;28;20045;-71
2022/07/18 00:38:31;;;;;;;10.98;7.45;;;16.80;99.90;;;;;;5031254;28;20041;-70
2022/07/18 00:40:57;;;;;;;11.50;7.47;;;16.80;99.90;;;;;;5031256;28;20037;-71
2022/07/18 00:43:22;;;;;;;12.68;7.95;;;16.70;99.90;;;;;;5032598;28;20033;-71
2022/07/18 00:45:49;;;;;;;11.65;7.78;;;16.70;99.90;;;;;;5031029;28;20164;-71
2022/07/18 00:48:15;;;;;;;10.60;7.30;;;16.70;99.90;;;;;;5032448;28;20083;-71
2022/07/18 00:50:42;;;;;;;12.02;7.63;;;16.80;99.90;;;;;;5032074;28;20053;-71
2022/07/18 00:53:10;;;;;;;12.25;8.43;;;16.70;99.90;;;;;;5030996;28;20503;-71
2022/07/18 00:55:38;;;;;;;11.27;7.03;;;16.90;99.90;;;;;;5032228;28;20587;-71
2022/07/18 00:58:03;;;;;;;14.60;7.55;;;16.60;99.90;;;;;;5032312;28;20037;-71
2022/07/18 01:03:13;;;;;;;10.35;7.40;;;16.70;99.90;;;;;;5032093;28;20041;-71
2022/07/18 01:05:39;;;;;;;11.68;7.00;;;16.80;99.90;;;;;;5030695;28;20037;-71
2022/07/18 01:08:04;;;;;;;12.45;8.07;;;16.70;99.90;;;;;;5031042;28;20132;-71
2022/07/18 01:10:30;;;;;;;9.80;6.80;;;16.60;99.90;;;;;;5031855;28;20491;-71
2022/07/18 01:12:56;;;;;;;11.52;7.10;;;16.80;99.90;;;;;;5032095;28;20487;-71
2022/07/18 01:15:21;;;;;;;12.77;7.65;;;16.80;99.90;;;;;;5031886;28;20037;-71
2022/07/18 01:17:49;;;;;;;14.32;8.77;;;16.60;99.90;;;;;;5030558;28;20044;-71
2022/07/18 01:20:14;;;;;;;14.05;8.18;;;16.80;99.90;;;;;;5031793;28;20046;-71
2022/07/18 01:22:41;;;;;;;10.95;8.75;;;16.70;99.90;;;;;;5031969;28;20042;-71
2022/07/18 01:25:08;;;;;;;11.70;8.20;;;16.70;99.90;;;;;;5030369;28;20095;-71
2022/07/18 01:27:34;;;;;;;19.95;9.02;;;16.60;99.90;;;;;;5030465;28;20472;-70
2022/07/18 01:30:00;;;;;;;13.48;8.77;;;16.60;99.90;;;;;;5030221;28;20071;-71
2022/07/18 01:32:27;;;;;;;12.25;8.15;;;16.50;99.90;;;;;;5030742;28;20407;-71
2022/07/18 01:34:52;;;;;;;12.73;8.98;;;16.70;99.90;;;;;;5031754;28;20084;-71
2022/07/18 01:37:18;;;;;;;10.35;8.43;;;16.50;99.90;;;;;;5031930;28;20065;-71
2022/07/18 01:39:45;;;;;;;12.35;9.40;;;16.50;99.90;;;;;;5030098;28;20470;-71
2022/07/18 01:42:12;;;;;;;12.07;7.70;;;16.60;99.90;;;;;;5033504;28;20419;-71
2022/07/18 01:44:39;;;;;;;12.07;8.00;;;16.60;99.90;;;;;;5019555;28;20041;-71
2022/07/18 01:47:08;;;;;;;15.32;8.60;;;16.40;99.90;;;;;;5035890;28;20080;-71
2022/07/18 01:49:34;;;;;;;18.80;9.18;;;16.60;99.90;;;;;;5034340;28;20064;-71
2022/07/18 01:52:01;;;;;;;15.32;8.43;;;16.50;99.90;;;;;;5034594;28;20514;-71
2022/07/18 01:54:29;;;;;;;13.52;8.35;;;16.40;99.90;;;;;;5034871;28;20034;-71
2022/07/18 01:56:55;;;;;;;14.90;9.60;;;16.30;99.90;;;;;;5034687;28;20094;-71
2022/07/18 01:59:22;;;;;;;14.70;9.13;;;16.40;99.90;;;;;;5035504;28;20046;-71
2022/07/18 02:01:47;;;;;;;10.95;8.00;;;16.30;99.90;;;;;;5036021;28;20071;-71
2022/07/18 02:04:13;;;;;;;12.13;8.02;;;16.30;99.90;;;;;;5034447;28;20550;-71
2022/07/18 02:06:39;;;;;;;14.60;7.97;;;16.40;99.90;;;;;;5035790;28;20042;-71
2022/07/18 02:09:06;;;;;;;12.27;9.05;;;16.30;99.90;;;;;;5034307;28;20033;-71
2022/07/18 02:11:33;;;;;;;12.95;8.75;;;16.30;99.90;;;;;;5034337;28;20116;-71
2022/07/18 02:13:58;;;;;;;11.10;7.95;;;16.40;99.90;;;;;;5034404;28;20091;-71
2022/07/18 02:16:24;;;;;;;12.18;7.93;;;16.30;99.90;;;;;;5017746;28;20438;-71
2022/07/18 02:18:50;;;;;;;11.80;8.73;;;16.40;99.90;;;;;;5034077;28;20069;-71
2022/07/18 02:21:16;;;;;;;12.65;8.68;;;16.20;99.90;;;;;;5035340;28;20041;-71
2022/07/18 02:23:42;;;;;;;13.82;9.70;;;16.30;99.90;;;;;;5035200;28;20057;-71
2022/07/18 02:26:09;;;;;;;15.95;8.50;;;16.10;99.90;;;;;;5035252;28;20048;-71
2022/07/18 02:28:35;;;;;;;12.60;8.45;;;16.30;99.90;;;;;;5033727;28;20045;-72
2022/07/18 02:31:01;;;;;;;14.52;9.20;;;16.30;99.90;;;;;;5033583;28;20514;-71
2022/07/18 02:33:26;;;;;;;17.08;9.43;;;16.20;99.90;;;;;;5035367;28;20041;-71
2022/07/18 02:35:52;;;;;;;14.77;9.23;;;16.10;99.90;;;;;;5034617;28;20044;-71
2022/07/18 02:38:18;;;;;;;12.73;8.98;;;16.20;99.90;;;;;;5035244;28;20037;-71
2022/07/18 02:40:44;;;;;;;12.95;9.02;;;16.10;99.90;;;;;;5034797;28;20438;-71
2022/07/18 02:43:10;;;;;;;12.98;9.13;;;16.10;99.90;;;;;;5035072;28;20053;-71
2022/07/18 02:45:36;;;;;;;15.95;9.05;;;16.00;99.90;;;;;;5033678;28;20037;-71
2022/07/18 02:48:01;;;;;;;16.20;9.57;;;16.10;99.90;;;;;;5035361;28;20048;-71
2022/07/18 02:50:27;;;;;;;12.90;8.50;;;16.10;99.90;;;;;;5035403;28;20044;-72
2022/07/18 02:52:53;;;;;;;12.70;8.60;;;16.00;99.90;;;;;;5038050;28;20034;-71
2022/07/18 02:55:20;;;;;;;13.45;8.35;;;16.10;99.90;;;;;;5034562;28;20037;-71
2022/07/18 02:57:46;;;;;;;11.90;9.40;;;16.00;99.90;;;;;;5018555;28;20137;-71
2022/07/18 03:00:14;;;;;;;12.90;8.60;;;16.00;99.90;;;;;;5035829;28;20046;-71
2022/07/18 03:02:40;;;;;;;10.40;7.82;;;16.00;99.90;;;;;;5034202;28;20041;-71
2022/07/18 03:05:06;;;;;;;17.60;9.50;;;16.00;99.90;;;;;;5034675;28;20446;-71
2022/07/18 03:07:32;;;;;;;15.00;8.77;;;16.10;99.90;;;;;;5035839;28;20037;-71
2022/07/18 03:09:58;;;;;;;14.05;8.65;;;16.10;99.90;;;;;;5042807;28;20518;-71
2022/07/18 03:12:24;;;;;;;13.85;8.75;;;16.00;99.90;;;;;;5054615;28;20037;-71
2022/07/18 03:14:50;;;;;;;13.40;8.50;;;16.00;99.90;;;;;;5053218;28;20044;-71
2022/07/18 03:17:15;;;;;;;15.55;9.07;;;16.00;99.90;;;;;;5054282;28;20055;-71
2022/07/18 03:19:41;;;;;;;14.48;9.23;;;16.10;99.90;;;;;;5053887;28;20037;-71
2022/07/18 03:22:07;;;;;;;12.95;9.10;;;16.00;99.90;;;;;;5053307;28;20155;-71
2022/07/18 03:24:33;;;;;;;16.30;9.43;;;16.00;99.90;;;;;;5053220;28;20040;-71
2022/07/18 03:26:59;;;;;;;17.35;8.90;;;16.00;99.90;;;;;;5052880;28;20049;-71
2022/07/18 03:29:24;;;;;;;11.95;8.38;;;15.90;99.90;;;;;;5043776;28;20045;-71
2022/07/18 03:31:50;;;;;;;12.30;8.75;;;15.90;99.90;;;;;;5033159;28;20072;-71
2022/07/18 03:34:16;;;;;;;15.23;9.60;;;15.80;99.90;;;;;;5052482;28;20072;-71
2022/07/18 03:36:42;;;;;;;12.93;8.82;;;15.70;99.90;;;;;;5036203;28;20047;-72
2022/07/18 03:39:09;;;;;;;13.90;9.35;;;15.70;99.90;;;;;;5052837;28;20037;-71
2022/07/18 03:41:36;;;;;;;13.65;9.20;;;15.60;99.90;;;;;;5052302;28;20041;-71
2022/07/18 03:44:02;;;;;;;15.98;9.00;;;15.50;99.90;;;;;;5035876;28;20078;-71
2022/07/18 03:46:28;;;;;;;14.75;9.23;;;15.60;99.90;;;;;;5052783;28;20047;-71
2022/07/18 03:48:53;;;;;;;14.55;9.43;;;15.50;99.90;;;;;;5052683;28;20041;-71
2022/07/18 03:51:19;;;;;;;16.58;8.35;;;15.50;99.90;;;;;;5053623;28;20076;-71
2022/07/18 03:53:45;;;;;;;11.90;7.63;;;15.60;99.90;;;;;;5053748;28;20037;-71
2022/07/18 03:56:10;;;;;;;12.88;8.35;;;15.40;99.90;;;;;;5052199;28;20037;-71
2022/07/18 03:58:36;;;;;;;10.48;7.85;;;15.40;99.90;;;;;;5052436;28;20041;-71
2022/07/18 04:01:03;;;;;;;14.23;8.23;;;15.30;99.90;;;;;;5053528;28;20134;-71
2022/07/18 04:03:28;;;;;;;12.38;8.23;;;15.30;99.90;;;;;;5052458;28;20131;-71
2022/07/18 04:05:54;;;;;;;11.25;7.80;;;15.10;99.90;;;;;;5053167;28;20455;-71
2022/07/18 04:08:20;;;;;;;15.48;9.13;;;15.20;99.90;;;;;;5052403;28;20055;-71
2022/07/18 04:10:45;;;;;;;15.38;8.65;;;15.30;99.90;;;;;;5052739;28;20662;-71
2022/07/18 04:13:11;;;;;;;12.27;8.52;;;15.30;99.90;;;;;;5052079;28;20044;-71
2022/07/18 04:15:37;;;;;;;14.07;8.90;;;15.30;99.90;;;;;;5052116;28;20119;-71
2022/07/18 04:18:04;;;;;;;16.25;8.77;;;15.30;99.90;;;;;;5053060;28;20041;-71
2022/07/18 04:20:30;;;;;;;15.02;8.80;;;15.40;99.90;;;;;;5051418;28;20087;-71
2022/07/18 04:22:58;;;;;;;14.32;9.93;;;15.40;99.90;;;;;;5053152;28;20072;-71
2022/07/18 04:25:27;;;;;;;14.63;9.88;;;15.40;99.90;;;;;;5051572;28;20682;-71
2022/07/18 04:27:54;;;;;;;15.25;8.18;;;15.50;99.90;;;;;;5053143;28;20076;-72
2022/07/18 04:30:22;;;;;;;15.80;9.80;;;15.50;99.90;;;;;;5005776;28;20483;-71
2022/07/18 04:32:48;;;;;;;12.82;8.60;;;15.50;99.90;;;;;;5013401;28;20038;-71
2022/07/18 04:35:13;;;;;;;11.80;8.60;;;15.60;99.90;;;;;;5012854;28;20038;-71
2022/07/18 04:37:40;;;;;;;14.43;8.65;;;15.50;99.90;;;;;;5011772;28;20045;-71
2022/07/18 04:40:07;;;;;;;14.02;9.13;;;15.70;99.90;;;;;;5011690;28;20435;-71
2022/07/18 04:42:33;;;;;;;12.32;9.15;;;15.70;99.90;;;;;;5011880;28;20547;-71
2022/07/18 04:44:59;;;;;;;17.50;8.70;;;15.70;99.90;;;;;;5012017;28;20045;-75
2022/07/18 04:47:26;;;;;;;12.93;8.60;;;15.70;99.90;;;;;;5011748;28;20484;-70
2022/07/18 04:49:52;;;;;;;14.45;8.90;;;15.90;99.90;;;;;;5011545;28;20038;-70
2022/07/18 04:52:19;;;;;;;13.02;8.93;;;15.90;99.90;;;;;;5011560;28;20038;-71
2022/07/18 04:54:44;;;;;;;13.25;8.88;;;16.00;99.90;;;;;;5015356;28;20153;-70
2022/07/18 04:57:11;;;;;;;11.35;8.68;;;15.90;99.90;;;;;;5012807;28;20057;-70
2022/07/18 04:59:38;;;;;;;14.32;8.70;;;15.90;99.90;;;;;;5011551;28;20049;-70
2022/07/18 05:02:04;;;;;;;14.98;9.57;;;16.00;99.90;;;;;;5011371;28;20042;-71
2022/07/18 05:04:30;;;;;;;12.20;8.60;;;15.90;99.90;;;;;;5012504;28;20041;-71
2022/07/18 05:06:56;;;;;;;17.35;9.02;;;16.00;99.90;;;;;;4994958;28;20060;-70
2022/07/18 05:09:21;;;;;;;12.65;9.30;;;16.10;99.90;;;;;;5011363;28;20030;-71
2022/07/18 05:11:47;;;;;;;13.52;7.95;;;16.10;99.90;;;;;;5012522;28;20087;-71
2022/07/18 05:14:12;;;;;;;13.55;8.88;;;16.10;99.90;;;;;;5011177;28;20042;-71
2022/07/18 05:16:38;;;;;;;13.52;8.55;;;16.20;99.90;;;;;;5011184;28;20046;-71
2022/07/18 05:19:03;;;;;;;13.77;8.77;;;16.30;99.90;;;;;;5010494;28;20053;-71
2022/07/18 05:21:30;;;;;;;15.77;9.13;;;16.20;99.90;;;;;;5012169;28;20053;-71
2022/07/18 05:23:56;;;;;;;14.18;8.15;;;16.20;99.90;;;;;;5012441;28;20442;-71
2022/07/18 05:26:22;;;;;;;16.73;8.48;;;16.20;99.90;;;;;;5011021;28;20100;-71
2022/07/18 05:28:47;;;;;;;12.25;9.23;;;16.10;99.90;;;;;;5012315;28;20118;-73
2022/07/18 05:31:13;;;;;;;14.82;8.52;;;16.30;99.90;;;;;;5011882;28;20049;-71
2022/07/18 05:33:39;;;;;;;13.55;7.75;;;16.40;99.90;;;;;;5014512;28;20057;-72
2022/07/18 05:36:05;;;;;;;13.77;8.15;;;16.30;99.90;;;;;;5032988;23;20041;-69
2022/07/18 05:38:30;;;;;;;13.10;8.02;;;16.30;99.90;;;;;;5011844;28;20073;-69
2022/07/18 05:40:56;;;;;;;15.43;8.77;;;16.40;99.90;;;;;;5011308;28;20049;-69
2022/07/18 05:43:22;;;;;;;14.63;8.65;;;16.60;99.90;;;;;;5010990;28;20414;-69
2022/07/18 05:45:47;;;;;;;14.30;8.88;;;16.40;99.90;;;;;;5011883;28;20049;-69
2022/07/18 05:48:13;;;;;;;13.40;7.53;;;16.50;99.90;;;;;;5011852;28;20053;-69
2022/07/18 05:50:38;;;;;;;12.95;9.00;;;16.50;99.90;;;;;;5011543;28;20033;-69
2022/07/18 05:53:04;;;;;;;13.55;7.97;;;16.60;99.90;;;;;;5011733;28;20557;-69
2022/07/18 05:55:30;;;;;;;12.50;7.95;;;16.60;99.90;;;;;;5011715;28;20049;-69
2022/07/18 05:57:56;;;;;;;13.52;7.57;;;16.70;99.90;;;;;;5011679;28;20049;-69
2022/07/18 06:00:21;;;;;;;17.35;8.40;;;16.90;99.90;;;;;;5011319;28;20046;-69
2022/07/18 06:02:49;;;;;;;13.68;7.45;;;16.80;99.90;;;;;;5011740;28;20034;-69
2022/07/18 06:05:15;;;;;;;13.00;7.10;;;16.90;99.90;;;;;;5011651;28;20045;-69
2022/07/18 06:07:41;;;;;;;10.43;6.22;;;17.00;99.90;;;;;;5011349;28;20045;-69
2022/07/18 06:10:07;;;;;;;15.85;8.32;;;17.10;99.90;;;;;;5011225;28;20045;-69
2022/07/18 06:12:32;;;;;;;13.30;7.47;;;17.10;99.90;;;;;;5011697;28;20030;-69
2022/07/18 06:14:59;;;;;;;9.27;5.57;;;17.20;99.90;;;;;;5011393;28;20135;-69
2022/07/18 06:17:25;;;;;;;10.50;6.75;;;17.30;99.90;;;;;;5011656;28;20046;-70
2022/07/18 06:19:50;;;;;;;8.50;6.13;;;17.50;99.90;;;;;;5011165;28;20095;-69
2022/07/18 06:22:16;;;;;;;9.45;6.35;;;17.70;99.90;;;;;;5010393;28;20045;-69
2022/07/18 06:24:42;;;;;;;8.93;6.32;;;17.80;99.90;;;;;;5011667;28;20038;-69
2022/07/18 06:27:07;;;;;;;10.32;6.65;;;18.00;99.90;;;;;;5011578;28;20042;-69
2022/07/18 06:29:33;;;;;;;11.57;5.38;;;18.30;99.90;;;;;;5013003;28;20113;-69
2022/07/18 06:31:58;;;;;;;8.40;5.18;;;18.60;99.90;;;;;;5015276;28;20070;-69
2022/07/18 06:34:24;;;;;;;7.65;4.82;;;18.90;99.90;;;;;;5017379;28;20045;-69
2022/07/18 06:36:50;;;;;;;6.95;4.63;;;19.00;99.90;;;;;;5034788;28;20037;-70
2022/07/18 06:39:18;;;;;;;9.00;4.70;;;19.30;99.90;;;;;;5034682;28;20076;-69
2022/07/18 06:41:44;;;;;;;6.63;3.90;;;19.60;99.90;;;;;;5034798;28;20064;-69
2022/07/18 06:44:10;;;;;;;7.07;4.38;;;20.10;99.90;;;;;;5000712;28;20049;-69
2022/07/18 06:46:36;;;;;;;7.60;3.80;;;20.60;99.90;;;;;;5034558;28;20048;-69
2022/07/18 06:49:03;;;;;;;6.65;3.67;;;21.20;99.90;;;;;;5034488;28;20033;-69
2022/07/18 06:51:29;;;;;;;10.07;3.70;;;21.30;99.10;;;;;;5034150;28;20495;-70
2022/07/18 06:53:54;;;;;;;5.20;3.30;;;21.40;98.10;;;;;;5024657;28;20455;-71
2022/07/18 06:56:20;;;;;;;5.90;3.30;;;21.60;98.40;;;;;;4996961;28;20045;-71
2022/07/18 06:58:48;;;;;;;7.43;3.10;;;21.90;98.70;;;;;;4996913;28;20046;-71
2022/07/18 07:01:16;;;;;;;10.70;3.67;;;22.20;97.60;;;;;;5014283;28;20049;-71
2022/07/18 07:03:41;;;;;;;3.55;2.65;;;22.20;96.10;;;;;;5014522;28;20523;-71
2022/07/18 07:06:07;;;;;;;7.35;3.30;;;22.40;95.60;;;;;;5014590;28;20046;-71
2022/07/18 07:08:33;;;;;;;5.13;2.85;;;22.70;94.90;;;;;;5014700;28;20517;-71
2022/07/18 07:10:59;;;;;;;4.68;2.75;;;22.90;94.30;;;;;;5014110;28;20416;-71
2022/07/18 07:13:25;;;;;;;4.75;2.95;;;23.20;93.80;;;;;;4996758;28;20041;-71
2022/07/18 07:15:51;;;;;;;4.45;2.45;;;23.50;93.00;;;;;;5014196;28;20042;-71
2022/07/18 07:18:16;;;;;;;4.40;2.50;;;23.40;91.60;;;;;;4996666;28;20052;-71
2022/07/18 07:20:42;;;;;;;5.28;2.75;;;23.40;91.60;;;;;;5014158;28;20046;-71
2022/07/18 07:23:08;;;;;;;5.03;2.45;;;23.50;91.00;;;;;;5014280;28;20041;-71
2022/07/18 07:25:35;;;;;;;5.63;3.42;;;23.80;90.20;;;;;;5014328;28;20053;-71
2022/07/18 07:28:01;;;;;;;6.05;2.33;;;23.80;90.10;;;;;;5014061;28;20042;-71
2022/07/18 07:30:26;;;;;;;5.07;2.40;;;23.80;88.60;;;;;;5013912;28;20507;-71
2022/07/18 07:32:52;;;;;;;7.43;2.45;;;23.70;88.50;;;;;;4996522;28;20042;-71
2022/07/18 07:35:19;;;;;;;6.13;2.58;;;23.80;87.80;;;;;;5013974;28;20513;-71
2022/07/18 07:37:56;;;;;;;4.65;2.70;;;24.00;88.40;;;;;;5014141;28;20048;-72
2022/07/18 07:40:26;;;;;;;4.70;2.45;;;24.10;86.30;;;;;;5012298;28;20064;-71
2022/07/18 07:43:03;;;;;;;4.80;2.10;;;24.40;84.90;;;;;;5013802;28;20077;-71
2022/07/18 07:45:29;;;;;;;6.97;1.92;;;24.90;83.40;;;;;;5013720;28;20121;-71
2022/07/18 07:47:54;;;;;;;4.75;2.15;;;25.20;80.40;;;;;;5013879;28;20124;-71
2022/07/18 07:50:20;;;;;;;5.50;2.17;;;25.20;77.10;;;;;;5013615;28;20126;-71
2022/07/18 07:52:46;;;;;;;3.88;2.00;;;25.30;76.60;;;;;;4996009;28;20069;-71
2022/07/18 07:55:11;;;;;;;3.75;1.70;;;25.50;75.60;;;;;;5013595;28;20034;-71
2022/07/18 07:57:37;;;;;;;3.22;1.67;;;25.80;72.80;;;;;;4979519;28;20430;-71
2022/07/18 08:00:07;;;;;;;4.47;1.75;;;26.00;72.70;;;;;;4995550;28;20042;-71
2022/07/18 08:02:32;;;;;;;3.88;1.65;;;26.20;69.80;;;;;;4996184;28;20184;-71
2022/07/18 08:04:58;;;;;;;4.88;1.77;;;26.40;66.20;;;;;;5013341;28;20046;-71
2022/07/18 08:07:24;;;;;;;4.38;1.60;;;26.40;64.60;;;;;;5013466;28;20092;-73
2022/07/18 08:09:49;;;;;;;3.65;1.83;;;26.50;65.10;;;;;;4995264;28;20045;-72
2022/07/18 08:12:15;;;;;;;4.10;1.92;;;26.50;63.30;;;;;;5012458;28;20037;-72
2022/07/18 08:14:41;;;;;;;5.25;1.65;;;26.60;62.40;;;;;;5044616;28;20025;-72
2022/07/18 08:17:07;;;;;;;4.45;1.88;;;26.80;62.40;;;;;;5018304;28;20057;-72
2022/07/18 08:19:33;;;;;;;3.22;1.80;;;27.10;62.60;;;;;;5052656;28;20073;-72
2022/07/18 08:21:59;;;;;;;3.35;1.90;;;26.90;59.70;;;;;;5034945;28;20430;-72
2022/07/18 08:24:24;;;;;;;3.72;1.60;;;26.80;61.50;;;;;;5052693;28;20041;-72
2022/07/18 08:26:50;;;;;;;2.40;1.30;;;26.50;60.40;;;;;;5052508;28;20041;-72
2022/07/18 08:29:16;;;;;;;2.95;1.80;;;26.40;61.90;;;;;;5052077;28;20037;-72
2022/07/18 08:31:42;;;;;;;4.47;1.63;;;26.60;62.10;;;;;;5034682;28;20090;-72
2022/07/18 08:34:07;;;;;;;3.45;1.02;;;26.90;63.00;;;;;;5052486;28;20513;-72
2022/07/18 08:36:33;;;;;;;2.63;1.23;;;26.80;62.40;;;;;;5034628;28;20133;-72
2022/07/18 08:38:58;;;;;;;3.70;1.42;;;27.00;62.00;;;;;;5052505;28;20069;-73
2022/07/18 08:41:24;;;;;;;3.60;1.60;;;27.20;61.40;;;;;;5052111;28;20049;-73
2022/07/18 08:43:51;;;;;;;3.55;1.30;;;27.40;60.90;;;;;;5034321;28;20041;-72
2022/07/18 08:46:21;;;;;;;3.30;1.17;;;27.40;59.50;;;;;;5052263;28;20041;-73
2022/07/18 08:48:51;;;;;;;3.95;1.00;;;27.30;59.80;;;;;;5034336;28;20045;-72
2022/07/18 08:51:17;;;;;;;3.95;1.60;;;27.10;59.90;;;;;;5034034;28;20044;-73
2022/07/18 08:53:46;;;;;;;3.60;1.45;;;26.80;57.40;;;;;;5051397;28;20033;-72
2022/07/18 08:56:12;;;;;;;1.65;1.27;;;26.70;58.90;;;;;;5034333;28;20076;-72
2022/07/18 08:58:37;;;;;;;3.13;1.27;;;26.70;60.00;;;;;;5052255;28;20072;-72
2022/07/18 09:01:03;;;;;;;3.40;1.30;;;26.70;60.40;;;;;;5033972;28;20416;-72
2022/07/18 09:03:29;;;;;;;4.30;1.60;;;26.50;60.20;;;;;;5051635;28;20041;-72
2022/07/18 09:06:08;;;;;;;3.47;1.40;;;26.40;61.00;;;;;;5051851;28;20614;-72
2022/07/18 09:08:34;;;;;;;4.05;1.48;;;26.30;61.50;;;;;;5051915;28;20048;-72
2022/07/18 09:11:01;;;;;;;4.50;1.38;;;25.90;60.90;;;;;;5051453;28;20130;-72
2022/07/18 09:13:33;;;;;;;4.82;1.50;;;25.60;61.40;;;;;;5052096;28;20033;-72
2022/07/18 09:16:16;;;;;;;3.13;1.35;;;25.40;63.10;;;;;;5051694;28;20506;-72
2022/07/18 09:18:46;;;;;;;3.55;1.50;;;25.20;63.40;;;;;;5033986;28;20037;-72
2022/07/18 09:21:18;;;;;;;3.63;1.95;;;25.20;62.30;;;;;;5051526;28;20052;-72
2022/07/18 09:23:48;;;;;;;4.15;1.60;;;25.30;63.00;;;;;;5031761;28;20112;-72
2022/07/18 09:26:41;;;;;;;4.13;2.22;;;25.40;65.10;;;;;;5028608;28;20041;-72
2022/07/18 09:29:07;;;;;;;7.10;1.92;;;25.50;66.90;;;;;;5000458;28;20037;-72
2022/07/18 09:31:34;;;;;;;4.43;1.65;;;25.60;68.90;;;;;;5011789;28;20038;-72
2022/07/18 09:34:02;;;;;;;4.47;1.35;;;25.70;66.40;;;;;;4994333;28;20037;-72
2022/07/18 09:36:28;;;;;;;3.30;1.45;;;25.90;65.80;;;;;;5011840;28;20046;-72
2022/07/18 09:38:55;;;;;;;3.83;1.80;;;26.00;64.90;;;;;;4994176;28;20128;-72
2022/07/18 09:41:26;;;;;;;4.63;1.50;;;26.00;63.70;;;;;;4993899;28;20116;-72
2022/07/18 09:43:51;;;;;;;3.35;1.40;;;26.20;62.70;;;;;;5011823;28;20045;-72
2022/07/18 09:46:17;;;;;;;2.88;1.52;;;26.30;63.00;;;;;;4994193;28;20053;-71
2022/07/18 09:48:43;;;;;;;7.28;1.77;;;26.10;61.80;;;;;;5011987;28;20092;-71
2022/07/18 09:51:10;;;;;;;7.60;2.17;;;26.10;61.00;;;;;;5011510;28;20037;-72
2022/07/18 09:53:41;;;;;;;3.97;1.45;;;26.10;60.90;;;;;;5011834;28;20057;-71
2022/07/18 09:56:09;;;;;;;3.00;1.48;;;26.20;60.30;;;;;;5016987;28;20038;-71
2022/07/18 09:58:55;;;;;;;4.88;2.13;;;26.20;61.90;;;;;;5003826;28;20052;-71
2022/07/18 10:01:21;;;;;;;4.25;1.92;;;26.40;62.70;;;;;;5021543;28;20026;-71
2022/07/18 10:03:48;;;;;;;3.85;1.52;;;26.50;62.50;;;;;;5014306;28;20042;-71
2022/07/18 10:06:16;;;;;;;2.47;1.42;;;26.70;61.50;;;;;;5017439;28;20056;-72
2022/07/18 10:08:41;;;;;;;6.50;1.98;;;26.90;60.60;;;;;;5035639;28;20558;-76
2022/07/18 10:11:07;;;;;;;4.15;1.60;;;27.00;59.80;;;;;;5035027;28;20038;-72
2022/07/18 10:13:35;;;;;;;5.35;1.65;;;27.10;59.80;;;;;;5035226;28;20041;-71
2022/07/18 10:16:01;;;;;;;7.00;1.85;;;27.10;58.20;;;;;;5035218;28;20041;-71
2022/07/18 10:18:30;;;;;;;3.67;1.80;;;27.20;56.90;;;;;;5017524;28;20083;-71
2022/07/18 10:21:02;;;;;;;5.03;1.85;;;27.20;56.40;;;;;;5034928;28;20402;-71
2022/07/18 10:23:47;;;;;;;5.40;1.43;;;27.20;58.20;;;;;;5035145;28;20109;-71
2022/07/18 10:26:25;;;;;;;4.60;1.48;;;27.20;57.60;;;;;;5035015;28;20076;-71
2022/07/18 10:28:57;;;;;;;3.50;1.50;;;27.10;56.60;;;;;;5035041;28;20099;-71
2022/07/18 10:31:24;;;;;;;3.33;1.60;;;27.20;58.20;;;;;;5016872;28;20092;-72
2022/07/18 10:33:51;;;;;;;3.75;1.88;;;27.20;57.80;;;;;;5034484;28;20037;-71
2022/07/18 10:36:21;;;;;;;5.22;1.55;;;27.20;56.80;;;;;;5016887;28;20095;-71
2022/07/18 10:39:19;;;;;;;5.03;2.22;;;27.10;57.90;;;;;;5034745;28;20511;-71
2022/07/18 10:41:48;;;;;;;3.08;1.80;;;27.10;58.30;;;;;;5034735;28;20491;-71
2022/07/18 10:44:23;;;;;;;5.65;1.70;;;27.10;58.70;;;;;;5034637;28;20299;-71
2022/07/18 10:47:09;;;;;;;4.45;1.65;;;27.20;57.60;;;;;;5034413;28;20045;-69
2022/07/18 10:49:47;;;;;;;2.60;1.70;;;27.30;57.20;;;;;;5033979;28;20041;-67
2022/07/18 10:52:27;;;;;;;3.80;1.83;;;27.50;57.30;;;;;;5004765;28;20112;-67
2022/07/18 10:57:32;;;;;;;10.13;2.10;;;27.70;55.60;;;;;;5019713;28;20073;-68
2022/07/18 11:00:13;;;;;;;3.92;1.83;;;27.80;56.40;;;;;;5031875;28;20426;-66
2022/07/18 11:02:41;;;;;;;5.60;1.77;;;27.90;56.40;;;;;;5034582;28;20065;-66
2022/07/18 11:05:25;;;;;;;6.82;1.98;;;28.00;55.50;;;;;;5034366;28;20057;-65
2022/07/18 11:08:06;;;;;;;6.65;1.70;;;28.10;55.90;;;;;;5034756;28;20053;-66
2022/07/18 11:10:51;;;;;;;3.85;1.50;;;28.10;56.90;;;;;;5030704;28;20567;-66
2022/07/18 11:13:28;;;;;;;6.80;2.22;;;28.10;56.00;;;;;;5023167;28;20034;-66
2022/07/18 11:16:15;;;;;;;3.78;1.73;;;28.00;51.00;;;;;;5021885;28;20108;-65
2022/07/18 11:18:41;;;;;;;4.45;2.03;;;28.20;53.80;;;;;;5023900;28;20491;-66
2022/07/18 11:21:19;;;;;;;3.92;1.95;;;28.20;53.40;;;;;;5023112;28;20073;-66
2022/07/18 11:23:47;;;;;;;4.60;1.80;;;28.40;54.90;;;;;;5007858;28;20069;-65
2022/07/18 11:26:21;;;;;;;5.15;2.20;;;28.50;55.00;;;;;;5030996;28;20037;-65
2022/07/18 11:28:50;;;;;;;5.50;2.10;;;28.40;53.60;;;;;;5034111;28;20091;-65
2022/07/18 11:31:16;;;;;;;6.25;2.85;;;28.40;53.00;;;;;;5032415;28;20043;-65
2022/07/18 11:33:48;;;;;;;3.58;2.00;;;28.40;53.10;;;;;;5025337;28;20026;-66
2022/07/18 11:36:16;;;;;;;3.28;2.10;;;28.50;52.40;;;;;;5032849;23;20033;-69
2022/07/18 11:38:51;;;;;;;5.25;2.47;;;28.50;52.00;;;;;;5008366;28;20046;-69
2022/07/18 11:41:17;;;;;;;5.70;2.00;;;28.70;48.90;;;;;;5013571;28;20534;-69
2022/07/18 11:43:48;;;;;;;5.70;2.70;;;28.90;50.70;;;;;;5014098;28;20033;-68
2022/07/18 11:46:16;;;;;;;4.28;2.50;;;29.00;52.50;;;;;;5013695;28;20558;-68
2022/07/18 11:48:45;;;;;;;4.47;2.63;;;29.00;50.20;;;;;;4996212;28;20041;-68
2022/07/18 11:51:16;;;;;;;3.33;2.80;;;28.90;49.90;;;;;;5013597;28;20038;-68
2022/07/18 11:53:51;;;;;;;4.28;2.50;;;28.80;48.90;;;;;;4996205;28;20132;-68
2022/07/18 11:56:18;;;;;;;4.10;2.97;;;29.00;52.40;;;;;;5010741;28;20030;-68
2022/07/18 11:58:46;;;;;;;5.82;3.35;;;28.90;48.30;;;;;;5003573;28;20033;-68
2022/07/18 12:01:12;;;;;;;4.40;3.13;;;28.90;47.70;;;;;;5004159;28;20077;-68
2022/07/18 12:03:44;;;;;;;5.57;2.90;;;29.00;47.50;;;;;;5002773;28;20034;-69
2022/07/18 12:06:13;;;;;;;4.75;3.40;;;29.00;47.20;;;;;;5002583;28;20084;-69
2022/07/18 12:08:44;;;;;;;7.13;3.20;;;28.80;46.10;;;;;;5000643;28;20030;-69
2022/07/18 12:11:25;;;;;;;5.38;2.78;;;28.70;47.80;;;;;;5001285;28;20069;-69
2022/07/18 12:13:57;;;;;;;4.97;3.05;;;28.60;46.90;;;;;;5003473;28;20057;-69
2022/07/18 12:16:30;;;;;;;5.28;3.13;;;28.80;47.70;;;;;;4979444;28;20042;-69
2022/07/18 12:19:05;;;;;;;6.78;3.13;;;28.70;46.60;;;;;;5013138;28;20229;-69
2022/07/18 12:22:04;;;;;;;4.13;3.25;;;28.70;47.50;;;;;;5013164;28;20100;-68
2022/07/18 12:24:37;;;;;;;5.10;3.70;;;28.70;49.70;;;;;;5002818;28;20076;-68
2022/07/18 12:27:25;;;;;;;5.57;3.17;;;28.70;47.20;;;;;;5013086;28;20049;-68
2022/07/18 12:30:11;;;;;;;6.35;3.15;;;28.90;47.80;;;;;;5013026;28;20407;-68
2022/07/18 12:32:52;;;;;;;4.75;3.10;;;29.00;48.90;;;;;;5013394;28;20042;-69
2022/07/18 12:35:26;;;;;;;7.68;3.83;;;29.10;46.80;;;;;;5012933;28;20121;-68
2022/07/18 12:37:52;;;;;;;6.53;3.35;;;29.40;46.70;;;;;;5013346;28;20081;-68
2022/07/18 12:40:18;;;;;;;5.38;3.35;;;29.40;46.80;;;;;;4995413;28;20052;-69
2022/07/18 12:42:43;;;;;;;6.10;2.88;;;29.20;46.10;;;;;;5013017;28;20041;-69
2022/07/18 12:45:11;;;;;;;6.00;3.58;;;29.30;47.20;;;;;;4995383;28;20049;-68
2022/07/18 12:47:37;;;;;;;5.68;2.67;;;29.10;46.00;;;;;;4995258;28;20038;-70
2022/07/18 12:50:05;;;;;;;4.95;3.15;;;29.00;45.50;;;;;;4995391;28;20049;-70
2022/07/18 12:52:31;;;;;;;4.10;3.25;;;28.90;46.10;;;;;;5013066;28;20096;-70